PWSweather.com
Personal Weather Stations
Station Observations
CAMPIGIANO
Campi Bisenzio, FirenzeIT

Campi BisenzioFirenzeIT

Lat: 43.8175012, Lon: 11.1391085

Elevation: 106

Station Type: LaCrosse WS2350

Latest ConditionsUpdated 6:30:03 AM GMT+01:01 Sunday, Feb 7, 2016
Currently Today's Max Today's Min Today's Average
Temperature 51.4°F10.8°C 52.1°F11.2°C 50.5°F10.3°C 51.3°F10.7°C
Dew Point 44.5°F6.9°C 45.2°F7.3°C 43.6°F6.4°C 44.2°F6.8°C
Winds Calm Calm 2.3 mph WNW3.7 kmh WNW - 0.2 mph 0.3 kmh
Wind Gusts -- 2.3 mph3.7 kmh - -
Humidity 77% 78% 75% 77%
Pressure 30.03 in1016.9 mb 30.21 in1023.0 mb 30.03 in1016.9 mb -
Hour Temp Dew Point Humidity Winds Wind Gusts Pressure Precip Precip Rate Daily Precip Total
06:30 AM 51.4°F10.8°C 44.5°F6.9°C 77% Calm Calm -- 30.03 in1016.9 mb - 0.00 in0.0 mm 0.00 in0.0 mm
06:15 AM 51.4°F10.8°C 44.8°F7.1°C 78% Calm Calm 2.3 mph3.7 kmh 30.06 in1017.9 mb - 0.00 in0.0 mm 0.00 in0.0 mm
06:00 AM 50.9°F10.5°C 44.3°F6.8°C 78% Calm Calm 2.3 mph3.7 kmh 30.06 in1017.9 mb - 0.00 in0.0 mm 0.00 in0.0 mm
05:45 AM 50.9°F10.5°C 44.3°F6.8°C 78% Calm Calm -- 30.06 in1017.9 mb - 0.00 in0.0 mm 0.00 in0.0 mm
05:30 AM 50.9°F10.5°C 44.3°F6.8°C 78% 2.3 mph WNW3.7 kmh WNW -- 30.06 in1017.9 mb - 0.00 in0.0 mm 0.00 in0.0 mm
05:15 AM 50.9°F10.5°C 44.3°F6.8°C 78% Calm Calm -- 30.06 in1017.9 mb - 0.00 in0.0 mm 0.00 in0.0 mm
05:00 AM 51.1°F10.6°C 44.1°F6.7°C 77% Calm Calm -- 30.06 in1017.9 mb - 0.00 in0.0 mm 0.00 in0.0 mm
04:45 AM 50.9°F10.5°C 44.0°F6.7°C 77% Calm Calm -- 30.09 in1019.0 mb - 0.00 in0.0 mm 0.00 in0.0 mm
04:30 AM 50.7°F10.4°C 43.8°F6.6°C 77% Calm Calm 2.3 mph3.7 kmh 30.09 in1019.0 mb - 0.00 in0.0 mm 0.00 in0.0 mm
04:15 AM 50.7°F10.4°C 43.8°F6.6°C 77% Calm Calm -- 30.09 in1019.0 mb - 0.00 in0.0 mm 0.00 in0.0 mm
04:00 AM 50.7°F10.4°C 43.7°F6.5°C 77% 1.2 mph SSW1.9 kmh SSW 1.2 mph1.9 kmh 30.09 in1019.0 mb - 0.00 in0.0 mm 0.00 in0.0 mm
03:45 AM 50.5°F10.3°C 43.6°F6.4°C 77% Calm Calm -- 30.10 in1019.3 mb - 0.00 in0.0 mm 0.00 in0.0 mm
03:30 AM 50.7°F10.4°C 43.8°F6.6°C 77% Calm Calm -- 30.11 in1019.6 mb - 0.00 in0.0 mm 0.00 in0.0 mm
03:15 AM 51.1°F10.6°C 43.8°F6.6°C 76% Calm Calm -- 30.13 in1020.3 mb - 0.00 in0.0 mm 0.00 in0.0 mm
03:00 AM 51.1°F10.6°C 43.8°F6.6°C 76% Calm Calm -- 30.13 in1020.3 mb - 0.00 in0.0 mm 0.00 in0.0 mm
02:45 AM 51.4°F10.8°C 43.8°F6.6°C 75% Calm Calm -- 30.13 in1020.3 mb - 0.00 in0.0 mm 0.00 in0.0 mm
02:30 AM 51.4°F10.8°C 44.5°F6.9°C 77% Calm Calm 1.2 mph1.9 kmh 30.14 in1020.7 mb - 0.00 in0.0 mm 0.00 in0.0 mm
02:15 AM 51.4°F10.8°C 44.5°F6.9°C 77% Calm Calm -- 30.14 in1020.7 mb - 0.00 in0.0 mm 0.00 in0.0 mm
02:00 AM 51.1°F10.6°C 43.8°F6.6°C 76% Calm Calm -- 30.15 in1021.0 mb - 0.00 in0.0 mm 0.00 in0.0 mm
01:45 AM 51.6°F10.9°C 44.3°F6.8°C 76% Calm Calm -- 30.16 in1021.3 mb - 0.00 in0.0 mm 0.00 in0.0 mm
01:30 AM 52.0°F11.1°C 44.6°F7.0°C 76% Calm Calm -- 30.17 in1021.7 mb - 0.00 in0.0 mm 0.00 in0.0 mm
01:15 AM 52.0°F11.1°C 44.6°F7.0°C 76% Calm Calm -- 30.17 in1021.7 mb - 0.00 in0.0 mm 0.00 in0.0 mm
01:00 AM 52.0°F11.1°C 44.6°F7.0°C 76% Calm Calm -- 30.17 in1021.7 mb - 0.00 in0.0 mm 0.00 in0.0 mm
12:45 AM 51.6°F10.9°C 44.6°F7.0°C 77% Calm Calm -- 30.19 in1022.4 mb - 0.00 in0.0 mm 0.00 in0.0 mm
12:30 AM 51.6°F10.9°C 44.6°F7.0°C 77% Calm Calm -- 30.19 in1022.4 mb - 0.00 in0.0 mm 0.00 in0.0 mm
12:15 AM 52.1°F11.2°C 44.7°F7.1°C 76% 1.2 mph SSW1.9 kmh SSW 1.2 mph1.9 kmh 30.20 in1022.7 mb - 0.00 in0.0 mm 0.00 in0.0 mm
12:00 AM 52.1°F11.2°C 45.2°F7.3°C 77% Calm Calm 1.2 mph1.9 kmh 30.21 in1023.0 mb - 0.00 in0.0 mm 0.00 in0.0 mm